الصفحة الرئيسية
METAR-TAF:

METAR-TAF

مطار :

Saguache Municipal Airport

Saguache, كولورادو, الولايات المتحدة

دائرة عرض: 38-05-50N, خط طول: 106-10-07W, ارتفاع: 2385 متر

مراقبة الطقس الحالي

تاريخ ووقت الإصدار 23 دقيقة قبل الساعة 14:36UTC
رياح هادئة
درجة الحرارة 3°درجة مئوية
الرطوبة 44%
ضغط 1032 hPa
الرؤية: 16.1 كم
ملبد بالغيوم على ارتفاع 6500 قدم

METAR: K04V 171436Z AUTO 00000KT 10SM OVC065 03/M08 A3047 RMK AO2

زمن: 08:59 (14:59 UTC)


TAF: مفقودة

أرصاد الطقس والتوقعات من أكثر من 4000 مطار (تقارير الطقس للمطار METAR والتنبؤ بالطقس بالمطارTAF).

المحطات المتاحة هي النقط الصفراء والحمراء على الخريطة.

حرك المؤشر فوق النقطة لمعرفة اسم المحطة.

ثم انقر لمعرفة أرصاد وتوقعات الطقس.

لتغيير الخارطة: اضغط على الأزرار الخضراء مع رمز الصليب الأسود للتكبير. على الزر الأخضر مع شرطة للتصغير، أو على الأسهم الخضراء للخرائط المجاورة.


METAR-TAF: